Time;durP1;ratioP1;P1;durP2;ratioP2;P2;SDS_P1;SDS_P2;PMS_P1;PMS_P2;Temp;Humidity;BMP_temperature;BMP_pressure;BME280_temperature;BME280_humidity;BME280_pressure;Samples;Min_cycle;Max_cycle;Signal;HPM_P1;HPM_P2
2023/05/22 00:00:53;;;;;;;1.98;1.33;;;15.70;99.90;;;14.57;77.13;101579.00;5064222;28;20296;-72
2023/05/22 00:03:19;;;;;;;2.83;1.30;;;15.60;99.90;;;14.55;77.12;101578.22;5062873;28;20041;-72
2023/05/22 00:05:47;;;;;;;3.00;1.52;;;15.60;99.90;;;14.53;77.01;101574.75;4999410;28;20117;-72
2023/05/22 00:08:13;;;;;;;6.30;1.48;;;15.60;99.90;;;14.51;77.39;101573.09;5061629;28;20038;-72
2023/05/22 00:10:39;;;;;;;2.55;1.15;;;15.60;99.90;;;14.48;77.68;101574.13;5080079;28;20030;-71
2023/05/22 00:13:05;;;;;;;2.83;1.65;;;15.50;99.90;;;14.46;77.81;101578.63;5064220;28;20536;-72
2023/05/22 00:15:32;;;;;;;1.73;0.98;;;15.50;99.90;;;14.44;77.74;101583.16;5064916;28;20030;-72
2023/05/22 00:17:58;;;;;;;3.83;1.45;;;15.50;99.90;;;14.44;77.96;101580.50;5063564;28;20464;-72
2023/05/22 00:20:25;;;;;;;2.72;1.60;;;15.50;99.90;;;14.41;77.75;101580.66;5067959;28;20129;-71
2023/05/22 00:22:51;;;;;;;1.30;1.10;;;15.50;99.90;;;14.39;77.87;101582.53;5062329;28;20056;-72
2023/05/22 00:25:18;;;;;;;2.42;1.70;;;15.50;99.90;;;14.39;77.95;101579.88;5054612;28;20046;-72
2023/05/22 00:27:46;;;;;;;4.15;1.55;;;15.40;99.90;;;14.39;77.67;101574.59;5046743;28;20452;-72
2023/05/22 00:30:12;;;;;;;2.35;1.50;;;15.50;99.90;;;14.42;77.88;101578.88;5062362;28;20412;-72
2023/05/22 00:32:38;;;;;;;3.30;1.38;;;15.50;99.90;;;14.38;78.11;101572.84;5062616;28;20030;-72
2023/05/22 00:35:05;;;;;;;3.72;1.48;;;15.40;99.90;;;14.39;78.02;101574.59;5064163;28;20037;-71
2023/05/22 00:37:31;;;;;;;6.30;1.60;;;15.40;99.90;;;14.37;78.11;101579.09;5002782;28;20057;-72
2023/05/22 00:39:57;;;;;;;2.85;1.23;;;15.50;99.90;;;14.39;77.62;101579.03;5067555;28;20034;-72
2023/05/22 00:42:23;;;;;;;3.25;1.55;;;15.40;99.90;;;14.39;77.79;101579.03;5002353;28;20026;-72
2023/05/22 00:44:49;;;;;;;1.58;1.17;;;15.40;99.90;;;14.32;77.80;101581.97;5002790;28;20053;-71
2023/05/22 00:47:15;;;;;;;7.03;1.70;;;15.40;99.90;;;14.34;77.94;101579.22;5069324;28;20397;-72
2023/05/22 00:49:41;;;;;;;2.50;1.20;;;15.40;99.90;;;14.33;77.93;101580.19;5004951;28;20816;-71
2023/05/22 00:52:11;;;;;;;1.40;1.15;;;15.40;99.90;;;14.29;77.87;101576.81;5051072;28;20038;-71
2023/05/22 00:54:37;;;;;;;2.95;1.55;;;15.40;99.90;;;14.31;77.78;101582.91;5067725;28;20067;-72
2023/05/22 00:57:04;;;;;;;1.73;1.30;;;15.30;99.90;;;14.29;77.83;101574.16;5059671;28;20046;-73
2023/05/22 00:59:31;;;;;;;1.80;0.98;;;15.40;99.90;;;14.30;77.85;101580.34;5067343;28;20041;-72
2023/05/22 01:01:58;;;;;;;4.43;1.40;;;15.40;99.90;;;14.31;77.34;101574.94;5058472;28;20072;-72
2023/05/22 01:04:24;;;;;;;3.05;1.73;;;15.30;99.90;;;14.26;77.88;101576.97;5067894;28;20062;-71
2023/05/22 01:06:50;;;;;;;3.70;1.77;;;15.30;99.90;;;14.23;77.58;101576.25;5065611;28;20042;-71
2023/05/22 01:09:16;;;;;;;3.80;1.90;;;15.30;99.90;;;14.21;77.89;101576.34;5056929;28;20428;-73
2023/05/22 01:12:05;;;;;;;2.63;1.42;;;15.30;99.90;;;14.21;77.45;101578.13;5068044;28;20833;-72
2023/05/22 01:15:12;;;;;;;4.13;1.42;;;15.20;99.90;;;14.12;77.93;101569.72;5000337;28;20042;-71
2023/05/22 01:18:18;;;;;;;2.60;1.40;;;15.20;99.90;;;14.07;77.86;101569.03;5051045;28;20049;-71
2023/05/22 01:21:05;;;;;;;3.75;1.40;;;15.20;99.90;;;14.06;77.81;101570.00;5046971;28;20034;-71
2023/05/22 01:24:14;;;;;;;2.45;1.55;;;15.10;99.90;;;14.01;77.69;101571.13;5083377;28;20112;-72
2023/05/22 01:27:07;;;;;;;2.53;1.40;;;15.10;99.90;;;13.97;77.89;101572.22;5002141;28;20050;-72
2023/05/22 01:29:51;;;;;;;2.03;1.40;;;15.00;99.90;;;13.93;77.56;101566.19;5000872;28;20797;-72
2023/05/22 01:32:22;;;;;;;2.35;1.40;;;15.00;99.90;;;13.89;77.57;101570.78;5049751;28;20121;-73
2023/05/22 01:34:55;;;;;;;1.92;1.30;;;15.00;99.90;;;13.86;77.63;101567.41;5056246;28;20028;-72
2023/05/22 01:37:22;;;;;;;1.73;1.27;;;14.90;99.90;;;13.84;77.58;101578.06;5064108;28;20741;-73
2023/05/22 01:39:50;;;;;;;1.83;1.20;;;14.90;99.90;;;13.80;78.09;101575.63;5065644;28;20042;-72
2023/05/22 01:42:17;;;;;;;2.15;0.95;;;14.80;99.90;;;13.77;78.29;101574.00;5064997;28;20037;-72
2023/05/22 01:44:43;;;;;;;2.80;1.65;;;14.80;99.90;;;13.74;78.46;101582.09;5067648;28;20032;-71
2023/05/22 01:47:09;;;;;;;1.48;1.25;;;14.90;99.90;;;13.71;78.97;101571.63;4995175;28;20703;-71
2023/05/22 01:49:35;;;;;;;2.33;1.52;;;14.80;99.90;;;13.65;79.52;101572.78;5002134;28;20034;-72
2023/05/22 01:52:14;;;;;;;3.58;1.30;;;14.80;99.90;;;13.60;79.67;101579.22;5065094;28;20553;-72
2023/05/22 01:54:47;;;;;;;2.67;1.13;;;14.70;99.90;;;13.55;79.98;101579.44;5062714;28;20072;-72
2023/05/22 01:57:36;;;;;;;2.72;1.33;;;14.70;99.90;;;13.51;80.37;101577.84;5057295;28;20037;-72
2023/05/22 02:00:12;;;;;;;2.03;1.45;;;14.70;99.90;;;13.49;80.61;101574.41;5055064;28;20121;-71
2023/05/22 02:02:42;;;;;;;2.67;1.02;;;14.60;99.90;;;13.47;80.49;101570.97;5064685;28;20540;-71
2023/05/22 02:05:11;;;;;;;1.63;1.27;;;14.60;99.90;;;13.45;79.96;101571.03;5065065;28;20041;-72
2023/05/22 02:07:39;;;;;;;1.60;1.20;;;14.50;99.90;;;13.46;79.79;101570.13;5047701;28;20128;-71
2023/05/22 02:10:08;;;;;;;2.58;1.15;;;14.50;99.90;;;13.44;79.76;101569.31;5065430;28;20367;-73
2023/05/22 02:12:35;;;;;;;7.95;1.08;;;14.50;99.90;;;13.34;80.14;101563.56;5066524;28;20098;-72
2023/05/22 02:15:02;;;;;;;4.07;1.45;;;14.40;99.90;;;13.34;80.11;101566.22;5071899;28;20030;-72
2023/05/22 02:17:27;;;;;;;2.08;1.00;;;14.40;99.90;;;13.26;80.82;101573.63;5057500;28;20049;-71
2023/05/22 02:19:53;;;;;;;2.00;0.90;;;14.40;99.90;;;13.28;81.24;101576.19;5065480;28;20050;-71
2023/05/22 02:22:19;;;;;;;1.98;1.30;;;14.40;99.90;;;13.25;81.70;101569.25;5065008;28;20034;-72
2023/05/22 02:24:46;;;;;;;;;;;14.40;99.90;;;13.26;82.05;101562.16;5041545;28;20139;-72
2023/05/22 02:27:13;;;;;;;1.60;1.08;;;14.40;99.90;;;13.26;81.77;101562.16;5064016;28;20001;-72
2023/05/22 02:29:39;;;;;;;2.17;1.10;;;14.40;99.90;;;13.20;82.07;101562.47;5066024;28;20083;-71
2023/05/22 02:32:05;;;;;;;1.83;1.20;;;14.30;99.90;;;13.15;82.70;101562.66;5058360;28;20033;-72
2023/05/22 02:34:31;;;;;;;2.28;1.45;;;14.30;99.90;;;13.13;82.68;101559.22;5063610;28;20038;-71
2023/05/22 02:37:04;;;;;;;2.55;1.50;;;14.20;99.90;;;13.14;81.90;101560.94;5065614;28;20049;-71
2023/05/22 02:39:29;;;;;;;2.60;0.85;;;14.30;99.90;;;13.08;82.37;101561.22;5064529;28;20034;-72
2023/05/22 02:41:55;;;;;;;2.22;1.13;;;14.20;99.90;;;13.11;81.34;101558.44;5065008;28;20035;-72
2023/05/22 02:44:21;;;;;;;1.55;0.88;;;14.20;99.90;;;13.10;81.72;101554.06;5001488;28;20034;-72
2023/05/22 02:46:47;;;;;;;2.75;1.50;;;14.20;99.90;;;13.07;81.45;101552.44;5065712;28;20478;-72
2023/05/22 02:49:13;;;;;;;;;;;14.20;99.90;;;13.05;81.55;101549.00;5065605;28;20038;-72
2023/05/22 02:51:39;;;;;;;2.22;1.20;;;14.10;99.90;;;13.03;82.10;101550.00;5064984;28;19917;-72
2023/05/22 02:54:05;;;;;;;2.03;1.15;;;14.10;99.90;;;13.01;81.92;101546.56;5002514;28;20049;-72
2023/05/22 02:56:31;;;;;;;2.53;1.65;;;14.10;99.90;;;13.03;81.82;101548.19;5072754;28;20078;-71
2023/05/22 02:58:57;;;;;;;1.70;0.98;;;14.10;99.90;;;13.03;81.26;101553.47;5081574;28;20042;-72
2023/05/22 03:01:25;;;;;;;;;;;14.10;99.90;;;13.06;81.55;101547.19;5065962;28;20061;-71
2023/05/22 03:03:51;;;;;;;1.48;1.20;;;14.10;99.90;;;13.04;81.92;101541.97;4999168;28;19922;-72
2023/05/22 03:06:17;;;;;;;4.25;1.30;;;14.10;99.90;;;13.07;81.85;101546.28;4998195;28;20058;-72
2023/05/22 03:08:43;;;;;;;3.05;1.48;;;14.10;99.90;;;13.09;81.88;101544.44;5065222;28;20068;-72
2023/05/22 03:11:10;;;;;;;4.68;1.15;;;14.20;99.90;;;13.17;81.61;101547.56;5057133;28;20514;-72
2023/05/22 03:13:35;;;;;;;4.63;1.23;;;14.20;99.90;;;13.22;81.43;101550.88;5064899;28;20049;-72
2023/05/22 03:16:02;;;;;;;3.67;0.95;;;14.20;99.90;;;13.30;81.07;101551.44;5065830;28;20048;-71
2023/05/22 03:18:27;;;;;;;;;;;14.30;99.90;;;13.33;81.25;101546.00;5038540;28;20049;-72
2023/05/22 03:20:53;;;;;;;2.13;1.30;;;14.30;99.90;;;13.39;81.40;101549.28;5003998;28;19913;-72
2023/05/22 03:23:23;;;;;;;;;;;14.30;99.90;;;13.42;81.46;101549.16;5065042;28;20034;-71
2023/05/22 03:25:50;;;;;;;1.52;0.68;;;14.40;99.90;;;13.49;82.03;101550.59;5062272;28;19924;-72
2023/05/22 03:28:15;;;;;;;2.35;1.20;;;14.50;99.90;;;13.65;81.56;101551.63;5000620;28;20081;-72
2023/05/22 03:30:41;;;;;;;2.55;1.45;;;14.70;99.90;;;13.81;80.93;101557.03;4999701;28;20054;-71
2023/05/22 03:33:07;;;;;;;;;;;14.70;99.90;;;13.98;80.44;101558.91;5046274;28;20069;-72
2023/05/22 03:35:33;;;;;;;2.95;1.30;;;14.90;99.90;;;14.11;79.78;101561.81;4994044;28;19925;-73
2023/05/22 03:37:58;;;;;;;;;;;14.90;99.90;;;14.25;79.34;101558.50;5063993;28;20030;-71
2023/05/22 03:40:24;;;;;;;2.20;1.30;;;15.20;99.90;;;14.38;78.22;101569.34;5064620;28;19917;-72
2023/05/22 03:42:50;;;;;;;;;;;15.20;99.90;;;14.51;78.04;101567.81;5064690;28;20116;-72
2023/05/22 03:45:16;;;;;;;2.60;1.20;;;15.40;99.90;;;14.57;77.36;101560.44;5012930;28;20011;-72
2023/05/22 03:47:42;;;;;;;3.00;1.10;;;15.50;99.90;;;14.80;76.81;101558.44;5023116;28;20048;-72
2023/05/22 03:50:09;;;;;;;;;;;15.50;99.90;;;14.98;76.24;101564.56;5000263;28;20038;-72
2023/05/22 03:52:34;;;;;;;2.27;1.60;;;16.00;99.90;;;15.32;75.43;101574.28;5055266;28;19921;-73
2023/05/22 03:55:00;;;;;;;;;;;16.10;99.90;;;16.24;73.65;101580.81;5064599;28;20034;-72
2023/05/22 03:57:26;;;;;;;5.05;2.50;;;17.70;99.90;;;17.32;70.72;101586.00;5054093;28;19962;-72
2023/05/22 03:59:52;;;;;;;;;;;17.80;99.90;;;18.12;67.42;101589.88;5070195;28;20043;-72
2023/05/22 04:02:20;;;;;;;1.17;0.95;;;19.40;99.90;;;19.12;64.91;101595.72;5053261;28;19936;-72
2023/05/22 04:04:46;;;;;;;1.75;1.15;;;20.10;99.90;;;19.58;62.43;101605.88;5054967;28;20038;-72
2023/05/22 04:07:12;;;;;;;3.13;1.48;;;20.70;99.90;;;20.29;60.06;101604.31;5063935;28;20030;-72
2023/05/22 04:09:39;;;;;;;3.00;1.75;;;21.30;99.90;;;20.98;58.66;101604.50;5005022;28;20048;-72
2023/05/22 04:12:06;;;;;;;5.72;1.83;;;21.80;99.90;;;21.46;57.26;101607.03;5063309;28;20048;-72
2023/05/22 04:14:32;;;;;;;1.48;1.20;;;22.30;99.90;;;21.94;55.60;101615.81;5064658;28;20082;-72
2023/05/22 04:16:58;;;;;;;3.60;1.30;;;22.60;99.90;;;22.24;54.62;101620.53;5055790;28;20507;-72
2023/05/22 04:19:26;;;;;;;1.38;1.13;;;23.00;99.90;;;22.78;53.56;101624.97;5032282;28;20049;-72
2023/05/22 04:21:53;;;;;;;2.65;1.45;;;23.30;99.90;;;23.12;52.57;101627.53;5049374;28;20447;-72
2023/05/22 04:24:21;;;;;;;3.38;1.45;;;23.70;99.70;;;23.91;51.16;101621.59;5064016;28;20054;-73
2023/05/22 04:26:48;;;;;;;2.33;1.58;;;24.00;98.60;;;24.20;50.25;101632.41;5062948;28;20045;-72
2023/05/22 04:29:15;;;;;;;1.55;1.00;;;24.60;98.80;;;25.09;48.05;101636.84;4991926;28;20037;-72
2023/05/22 04:31:41;;;;;;;1.92;1.40;;;25.10;97.60;;;25.75;46.96;101644.06;5063633;28;20038;-72
2023/05/22 04:34:11;;;;;;;2.92;1.73;;;25.50;97.10;;;26.25;46.80;101649.09;4999783;28;20504;-74
2023/05/22 04:36:37;;;;;;;4.28;1.48;;;25.80;96.90;;;26.77;45.79;101652.00;5061980;28;20030;-73
2023/05/22 04:39:03;;;;;;;2.30;1.38;;;26.20;95.10;;;26.56;44.53;101654.16;4999630;28;20069;-72
2023/05/22 04:41:29;;;;;;;;;;;26.10;96.60;;;26.97;43.06;101659.94;5046868;28;20212;-72
2023/05/22 04:43:55;;;;;;;2.17;1.35;;;26.50;95.00;;;27.30;44.45;101668.31;5063776;28;19917;-72
2023/05/22 04:46:21;;;;;;;;;;;26.50;96.80;;;28.06;41.50;101669.44;4992157;28;20030;-72
2023/05/22 04:48:47;;;;;;;3.13;1.70;;;27.10;93.90;;;28.47;42.50;101677.66;5064197;28;19944;-73
2023/05/22 04:51:13;;;;;;;;;;;27.10;95.90;;;29.53;40.35;101693.16;5056030;28;20030;-72
2023/05/22 04:53:39;;;;;;;4.78;1.58;;;28.00;93.60;;;29.63;40.46;101700.09;5063130;28;19917;-72
2023/05/22 04:56:06;;;;;;;2.97;2.00;;;28.30;93.40;;;30.29;39.67;101712.63;5063251;28;20793;-73
2023/05/22 04:58:32;;;;;;;2.88;1.40;;;28.30;91.60;;;29.44;38.87;101714.03;5065876;28;20766;-73
2023/05/22 05:00:58;;;;;;;1.73;1.33;;;28.30;92.50;;;30.02;39.68;101704.75;5043235;28;20083;-72
2023/05/22 05:03:24;;;;;;;2.05;1.30;;;28.50;91.30;;;29.57;38.06;101710.78;4999331;28;20056;-72
2023/05/22 05:05:51;;;;;;;3.13;1.70;;;28.30;91.00;;;29.48;39.11;101715.34;5064066;28;20037;-73
2023/05/22 05:08:16;;;;;;;2.92;1.50;;;28.30;91.00;;;29.67;38.73;101707.88;5044683;28;20508;-73
2023/05/22 05:10:42;;;;;;;1.67;1.23;;;28.50;92.40;;;30.58;38.89;101728.25;5045785;28;20038;-73
2023/05/22 05:13:08;;;;;;;2.22;1.40;;;29.10;91.30;;;31.59;36.97;101737.19;5061991;28;20462;-73
2023/05/22 05:15:34;;;;;;;2.28;1.40;;;29.40;89.40;;;31.20;36.82;101738.19;4991924;28;20034;-73
2023/05/22 05:18:00;;;;;;;2.20;1.58;;;29.30;90.40;;;31.37;36.94;101737.00;5061127;28;20038;-72
2023/05/22 05:20:26;;;;;;;2.35;1.48;;;29.60;89.50;;;31.36;35.69;101743.50;4999041;28;20075;-72
2023/05/22 05:22:52;;;;;;;1.85;1.17;;;29.60;90.20;;;31.94;36.23;101751.94;5000201;28;20045;-72
2023/05/22 05:25:18;;;;;;;2.15;1.30;;;30.30;89.80;;;33.20;34.68;101755.34;5066870;28;20034;-72
2023/05/22 05:27:44;;;;;;;2.03;1.30;;;30.60;88.00;;;33.03;34.50;101756.63;5073231;28;20037;-73
2023/05/22 05:30:10;;;;;;;2.30;1.67;;;30.80;88.60;;;32.73;33.63;101756.75;5069899;28;20034;-72
2023/05/22 05:32:37;;;;;;;1.40;1.05;;;30.60;88.80;;;32.46;34.50;101753.69;5067011;28;20033;-73
2023/05/22 05:35:03;;;;;;;2.40;1.30;;;30.80;88.30;;;33.52;35.24;101761.25;5057107;28;20090;-73
2023/05/22 05:37:29;;;;;;;2.15;1.42;;;31.20;87.00;;;33.57;34.02;101763.41;5001915;28;20086;-72
2023/05/22 05:39:55;;;;;;;3.58;1.70;;;31.60;85.50;;;34.14;32.70;101769.69;5065228;28;20121;-72
2023/05/22 05:42:21;;;;;;;1.88;1.30;;;31.60;84.30;;;33.84;32.54;101767.19;5002442;28;20160;-73
2023/05/22 05:44:47;;;;;;;2.40;1.40;;;31.60;85.10;;;33.63;33.25;101768.97;5002451;28;20425;-73
2023/05/22 05:47:13;;;;;;;1.52;1.42;;;31.80;83.20;;;34.10;33.05;101764.63;5059560;28;20038;-71
2023/05/22 05:49:39;;;;;;;1.50;1.10;;;31.90;83.90;;;33.68;32.92;101762.91;5003123;28;20041;-72
2023/05/22 05:52:05;;;;;;;1.90;1.25;;;31.90;81.40;;;33.16;34.14;101761.41;5057144;28;20034;-73
2023/05/22 05:54:31;;;;;;;2.05;1.52;;;31.90;83.40;;;33.65;33.45;101772.34;5003992;28;20486;-72
2023/05/22 05:56:57;;;;;;;1.48;1.20;;;32.10;81.50;;;33.51;32.86;101771.34;5066491;28;20044;-72
2023/05/22 05:59:23;;;;;;;3.70;1.77;;;32.20;82.50;;;34.18;32.00;101780.03;5058447;28;20497;-72
2023/05/22 06:01:49;;;;;;;3.08;1.08;;;32.30;82.80;;;34.05;32.43;101767.09;5065955;28;20496;-72
2023/05/22 06:04:15;;;;;;;1.80;1.25;;;32.70;83.20;;;34.47;32.17;101770.69;5049653;28;20410;-73
2023/05/22 06:06:41;;;;;;;2.22;1.27;;;33.20;81.20;;;35.46;31.35;101769.19;5043295;28;20052;-72
2023/05/22 06:09:08;;;;;;;1.90;1.38;;;33.50;77.40;;;34.78;30.57;101769.34;5066101;28;20065;-73
2023/05/22 06:11:34;;;;;;;2.60;1.33;;;33.60;81.00;;;35.18;31.43;101777.63;5064449;28;20030;-73
2023/05/22 06:14:02;;;;;;;1.83;1.05;;;33.70;78.80;;;34.51;31.40;101769.25;5067585;28;20030;-72
2023/05/22 06:16:28;;;;;;;1.95;1.13;;;33.70;77.70;;;34.84;31.57;101768.50;5062092;28;20034;-72
2023/05/22 06:18:56;;;;;;;2.00;1.17;;;33.70;77.40;;;35.02;31.72;101764.31;4993036;28;20718;-73
2023/05/22 06:21:23;;;;;;;1.98;1.30;;;34.10;78.60;;;35.85;30.79;101769.38;5063941;28;20033;-72
2023/05/22 06:23:50;;;;;;;2.13;1.25;;;34.70;78.60;;;36.80;29.46;101780.63;5002858;28;20030;-72
2023/05/22 06:26:16;;;;;;;0.88;0.75;;;34.70;73.60;;;35.15;30.40;101771.75;5065453;28;20640;-72
2023/05/22 06:28:43;;;;;;;1.45;1.10;;;34.50;73.50;;;34.66;30.46;101755.41;5066056;28;20046;-73
2023/05/22 06:31:09;;;;;;;1.10;0.82;;;34.40;72.00;;;35.25;30.67;101767.53;5083381;28;20034;-72
2023/05/22 06:33:36;;;;;;;2.28;1.35;;;34.40;72.70;;;35.14;30.57;101768.13;5000258;28;20044;-73
2023/05/22 06:36:03;;;;;;;2.30;1.02;;;34.30;71.60;;;34.05;31.42;101758.91;4998691;28;20117;-72
2023/05/22 06:38:31;;;;;;;1.52;1.02;;;34.40;74.10;;;35.28;30.53;101758.88;5000419;28;20033;-73
2023/05/22 06:40:57;;;;;;;1.27;0.80;;;34.70;75.00;;;35.86;29.75;101771.06;5047759;28;20030;-72
2023/05/22 06:43:23;;;;;;;1.85;1.05;;;35.30;73.80;;;36.39;29.36;101776.38;5056930;28;20027;-73
2023/05/22 06:45:49;;;;;;;1.75;0.88;;;35.50;70.70;;;35.28;29.83;101753.41;5065307;28;20029;-72
2023/05/22 06:48:14;;;;;;;2.28;1.00;;;35.40;70.70;;;35.90;29.46;101769.59;5064005;28;23277;-73
2023/05/22 06:50:40;;;;;;;0.90;0.73;;;35.00;69.80;;;34.29;30.42;101754.00;5067880;28;20031;-72
2023/05/22 06:53:06;;;;;;;1.33;0.90;;;35.00;69.70;;;34.18;30.55;101741.75;5034474;28;20498;-72
2023/05/22 06:55:32;;;;;;;1.50;0.98;;;34.60;71.40;;;34.51;31.08;101744.63;5047143;28;20037;-72
2023/05/22 06:58:00;;;;;;;1.42;0.90;;;34.40;70.30;;;33.79;30.95;101740.47;5043125;28;20033;-72
2023/05/22 07:00:26;;;;;;;1.70;1.10;;;33.90;71.20;;;33.57;31.33;101734.22;5001068;28;20448;-72
2023/05/22 07:02:52;;;;;;;1.75;1.25;;;33.50;70.50;;;32.74;30.76;101717.53;5063582;28;20040;-73
2023/05/22 07:05:17;;;;;;;2.35;1.25;;;33.60;72.40;;;33.38;31.34;101719.38;5064880;28;20116;-73
2023/05/22 07:07:43;;;;;;;1.15;0.98;;;33.80;71.70;;;33.81;31.13;101723.91;5063906;28;20034;-73
2023/05/22 07:10:10;;;;;;;1.92;1.15;;;34.00;72.30;;;33.61;31.20;101710.97;5001311;28;20099;-73
2023/05/22 07:12:36;;;;;;;1.75;1.00;;;34.30;72.50;;;34.43;30.63;101717.47;4999621;28;20530;-74
2023/05/22 07:15:02;;;;;;;1.35;0.80;;;34.70;72.90;;;35.11;30.14;101730.22;5065442;28;20581;-73
2023/05/22 07:17:28;;;;;;;1.58;1.10;;;34.30;70.60;;;32.83;31.70;101700.00;5065127;28;20469;-72
2023/05/22 07:19:53;;;;;;;1.65;1.00;;;34.10;70.00;;;33.42;31.56;101704.28;5000615;28;20040;-73
2023/05/22 07:22:20;;;;;;;1.90;1.00;;;34.10;71.60;;;33.56;31.80;101701.66;5065255;28;20079;-72
2023/05/22 07:24:46;;;;;;;2.20;1.58;;;34.30;71.90;;;33.91;30.93;101697.91;4992907;28;20034;-72
2023/05/22 07:27:12;;;;;;;2.15;1.10;;;34.00;70.60;;;33.18;31.70;101686.50;5000948;28;20042;-72
2023/05/22 07:29:38;;;;;;;1.58;1.13;;;34.10;72.40;;;33.93;31.16;101697.69;5064246;28;20849;-72
2023/05/22 07:32:05;;;;;;;2.60;1.23;;;34.00;70.40;;;33.19;31.94;101682.72;5064185;28;20058;-73
2023/05/22 07:34:33;;;;;;;1.65;0.98;;;33.90;72.30;;;33.26;31.93;101671.84;5064051;28;20522;-72
2023/05/22 07:37:00;;;;;;;1.65;0.88;;;33.60;72.10;;;32.88;32.63;101661.25;4992170;28;20041;-72
2023/05/22 07:39:26;;;;;;;1.38;1.02;;;33.50;71.80;;;33.12;31.80;101673.63;5067927;28;20038;-73
2023/05/22 07:41:53;;;;;;;1.33;0.90;;;33.60;72.00;;;33.58;31.39;101672.25;4992434;28;20045;-72
2023/05/22 07:44:18;;;;;;;1.50;1.10;;;33.60;72.40;;;33.48;31.94;101668.00;5000285;28;20049;-72
2023/05/22 07:46:44;;;;;;;1.63;1.15;;;33.60;75.90;;;32.71;32.15;101659.81;5064507;28;20826;-74
2023/05/22 07:49:10;;;;;;;1.25;0.80;;;33.60;71.50;;;33.00;32.20;101661.53;4999682;28;20043;-72
2023/05/22 07:51:36;;;;;;;0.98;0.88;;;33.30;71.10;;;32.49;31.95;101652.44;5073875;28;20109;-73
2023/05/22 07:54:02;;;;;;;0.93;0.80;;;33.00;71.80;;;32.53;32.26;101647.50;5064385;28;20038;-72
2023/05/22 07:56:28;;;;;;;1.08;0.88;;;32.60;70.80;;;32.12;32.33;101647.19;5001381;28;20036;-73
2023/05/22 07:58:54;;;;;;;3.80;0.98;;;32.80;72.90;;;32.80;32.34;101647.75;5000244;28;20038;-73
2023/05/22 08:01:21;;;;;;;1.73;1.30;;;32.80;71.80;;;32.19;33.01;101648.16;5066410;28;20094;-72
2023/05/22 08:03:47;;;;;;;1.00;0.90;;;32.80;73.00;;;32.46;32.57;101641.94;5062572;28;20054;-73
2023/05/22 08:06:15;;;;;;;1.35;1.00;;;32.70;72.10;;;32.42;32.60;101648.81;5079969;28;20107;-73
2023/05/22 08:08:40;;;;;;;1.85;1.55;;;32.80;72.20;;;32.41;32.50;101647.13;5064799;28;20030;-72
2023/05/22 08:11:06;;;;;;;1.25;1.00;;;32.50;71.80;;;32.32;31.56;101642.84;5047285;28;20103;-72
2023/05/22 08:13:32;;;;;;;1.05;0.70;;;32.30;70.30;;;31.77;32.01;101633.34;5052617;28;20514;-72
2023/05/22 08:15:58;;;;;;;0.80;0.80;;;32.20;73.30;;;32.17;32.89;101634.72;5032606;28;20091;-72
2023/05/22 08:18:26;;;;;;;1.27;0.80;;;32.20;73.00;;;31.98;32.69;101629.88;5064537;28;20034;-73
2023/05/22 08:20:53;;;;;;;0.88;0.80;;;32.00;74.90;;;31.32;34.78;101616.16;5062854;28;20155;-72
2023/05/22 08:23:19;;;;;;;1.20;1.00;;;31.50;74.20;;;30.30;35.17;101600.22;5001582;28;20034;-72
2023/05/22 08:25:44;;;;;;;2.22;0.93;;;31.00;75.20;;;30.14;35.71;101598.44;4992859;28;20447;-72
2023/05/22 08:28:10;;;;;;;0.63;0.57;;;30.40;73.90;;;29.22;34.59;101597.09;5063158;28;20029;-71
2023/05/22 08:30:36;;;;;;;2.67;1.00;;;29.60;76.00;;;28.86;36.46;101574.09;5064471;28;20429;-73
2023/05/22 08:33:02;;;;;;;1.00;0.70;;;29.70;76.60;;;29.27;35.83;101582.19;5062332;28;20042;-72
2023/05/22 08:35:28;;;;;;;1.42;0.73;;;29.70;76.20;;;28.99;34.64;101588.81;4999528;28;20033;-73
2023/05/22 08:37:54;;;;;;;1.08;0.77;;;29.40;75.40;;;28.72;36.29;101570.19;4990434;28;20034;-73
2023/05/22 08:40:20;;;;;;;0.90;0.80;;;29.30;75.90;;;28.57;36.40;101572.72;5019766;28;20032;-72
2023/05/22 08:42:47;;;;;;;0.85;0.65;;;29.10;75.90;;;27.72;37.11;101553.94;5062348;28;20048;-72
2023/05/22 08:45:15;;;;;;;1.35;0.70;;;28.90;77.80;;;27.91;37.50;101550.97;5062872;28;20037;-72
2023/05/22 08:47:43;;;;;;;1.30;0.85;;;28.90;78.60;;;28.13;37.42;101552.19;4999510;28;20042;-72
2023/05/22 08:50:10;;;;;;;0.88;0.68;;;28.90;77.30;;;28.24;36.90;101553.72;5064858;28;20032;-71
2023/05/22 08:52:50;;;;;;;1.33;0.50;;;28.60;78.40;;;27.61;36.56;101536.13;4998515;28;20045;-73
2023/05/22 08:55:18;;;;;;;4.15;0.80;;;28.50;77.60;;;27.54;38.02;101530.53;5063789;28;20037;-73
2023/05/22 08:57:46;;;;;;;1.08;0.75;;;28.40;77.00;;;27.23;37.15;101527.50;5067758;28;20045;-72
2023/05/22 09:00:13;;;;;;;1.13;0.82;;;28.10;75.40;;;27.12;36.98;101522.34;5067430;28;20339;-72
2023/05/22 09:02:39;;;;;;;1.65;0.70;;;28.00;75.30;;;26.97;36.75;101522.09;5071313;28;20406;-73
2023/05/22 09:05:08;;;;;;;1.27;0.98;;;27.70;74.60;;;26.61;37.01;101511.41;5069559;28;20034;-72
2023/05/22 09:07:39;;;;;;;1.20;0.88;;;27.80;77.40;;;27.14;37.02;101507.66;5046975;28;20044;-72
2023/05/22 09:10:07;;;;;;;1.35;0.90;;;27.70;76.10;;;26.85;37.28;101512.59;5000764;28;20030;-72
2023/05/22 09:12:33;;;;;;;1.08;0.98;;;27.80;77.90;;;27.04;37.75;101509.66;5002336;28;20086;-73
2023/05/22 09:15:10;;;;;;;1.83;1.20;;;27.60;77.90;;;26.95;37.47;101505.19;5069196;28;20112;-71
2023/05/22 09:17:45;;;;;;;1.40;0.80;;;27.60;77.80;;;26.85;36.84;101494.53;5066512;28;20037;-72
2023/05/22 09:20:17;;;;;;;0.90;0.73;;;27.70;78.40;;;27.18;37.67;101498.22;5066579;28;20574;-72
2023/05/22 09:22:49;;;;;;;1.58;0.82;;;27.90;78.50;;;27.45;37.59;101498.19;5058349;28;20076;-73
2023/05/22 09:25:21;;;;;;;1.20;0.88;;;28.00;78.10;;;27.39;37.28;101494.31;5069431;28;20049;-72
2023/05/22 09:27:50;;;;;;;1.17;0.73;;;28.00;76.50;;;27.36;36.89;101486.50;5005702;28;20087;-72
2023/05/22 09:30:22;;;;;;;0.70;0.68;;;28.10;75.40;;;27.64;36.00;101499.78;5051657;28;20034;-72
2023/05/22 09:32:53;;;;;;;1.30;0.70;;;28.20;77.40;;;27.68;36.88;101499.28;5003378;28;20026;-72
2023/05/22 09:35:20;;;;;;;0.98;0.77;;;28.40;74.70;;;27.54;36.44;101492.66;5066381;28;20118;-72
2023/05/22 09:37:49;;;;;;;1.30;0.77;;;28.40;76.30;;;27.87;36.26;101495.47;5060142;28;20030;-72
2023/05/22 09:40:16;;;;;;;0.65;0.60;;;28.30;72.50;;;27.32;35.33;101493.25;5003543;28;20486;-72
2023/05/22 09:42:45;;;;;;;1.10;0.63;;;28.20;70.60;;;27.12;34.94;101488.06;5068437;28;20445;-72
2023/05/22 09:45:18;;;;;;;3.38;0.80;;;28.00;72.40;;;27.16;35.62;101494.00;5071664;28;20041;-71
2023/05/22 09:47:48;;;;;;;1.17;0.75;;;27.80;71.30;;;26.83;35.14;101498.41;5065815;28;20053;-73
2023/05/22 09:50:17;;;;;;;1.17;0.95;;;27.80;74.00;;;27.13;35.48;101492.47;5004104;28;20081;-73
2023/05/22 09:52:45;;;;;;;1.42;0.80;;;27.50;72.60;;;26.63;34.92;101481.53;5002966;28;20057;-73
2023/05/22 09:55:12;;;;;;;0.75;0.55;;;27.60;74.20;;;27.00;35.67;101492.91;5065891;28;20443;-72
2023/05/22 09:57:44;;;;;;;1.05;0.90;;;27.60;72.50;;;27.03;35.04;101493.59;5058744;28;20394;-72
2023/05/22 10:00:17;;;;;;;1.08;0.68;;;27.70;73.50;;;27.15;35.02;101487.75;5067818;28;20038;-72
2023/05/22 10:03:17;;;;;;;1.45;1.08;;;27.90;75.30;;;27.49;35.68;101492.28;5045199;28;20117;-73
2023/05/22 10:05:49;;;;;;;1.15;0.73;;;28.00;75.10;;;27.52;35.00;101489.28;5055576;28;20046;-72
2023/05/22 10:08:30;;;;;;;1.48;1.00;;;28.20;72.00;;;27.48;34.85;101493.31;5064742;28;20045;-73
2023/05/22 10:10:57;;;;;;;1.33;0.70;;;28.00;70.70;;;26.96;33.46;101488.00;5051889;28;20125;-73
2023/05/22 10:13:24;;;;;;;0.90;0.73;;;27.70;70.90;;;26.95;34.67;101483.59;5065682;28;20034;-72
2023/05/22 10:15:50;;;;;;;1.30;0.90;;;27.80;72.40;;;27.04;34.36;101479.94;5045801;28;20030;-71
2023/05/22 10:18:19;;;;;;;2.70;1.05;;;27.80;71.00;;;26.99;34.87;101480.41;5053507;28;20038;-72